createdAt,value
2023-04-05T00:00:08.376Z,13.75
2023-04-05T00:02:37.094Z,9.85
2023-04-05T00:05:05.467Z,11.23
2023-04-05T00:07:34.166Z,17.73
2023-04-05T00:10:02.100Z,11.77
2023-04-05T00:12:29.576Z,9.43
2023-04-05T00:14:57.175Z,12.23
2023-04-05T00:17:25.010Z,8.25
2023-04-05T00:19:57.225Z,13.13
2023-04-05T00:22:26.427Z,14.60
2023-04-05T00:24:53.981Z,11.00
2023-04-05T00:27:21.703Z,14.32
2023-04-05T00:29:49.185Z,8.15
2023-04-05T00:32:16.966Z,9.38
2023-04-05T00:34:44.525Z,9.02
2023-04-05T00:37:12.771Z,8.63
2023-04-05T00:39:40.803Z,12.30
2023-04-05T00:42:09.100Z,9.57
2023-04-05T00:44:36.915Z,7.88
2023-04-05T00:47:08.459Z,12.52
2023-04-05T00:49:37.012Z,12.80
2023-04-05T00:52:04.967Z,13.48
2023-04-05T00:54:32.888Z,15.02
2023-04-05T00:57:01.362Z,12.05
2023-04-05T00:59:29.973Z,8.68
2023-04-05T01:02:02.722Z,11.07
2023-04-05T01:04:33.700Z,9.07
2023-04-05T01:07:14.113Z,13.18
2023-04-05T01:09:46.094Z,8.50
2023-04-05T01:12:18.607Z,8.48
2023-04-05T01:14:56.634Z,10.90
2023-04-05T01:17:28.265Z,8.35
2023-04-05T01:19:59.415Z,7.05
2023-04-05T01:22:54.635Z,9.88
2023-04-05T01:25:41.566Z,13.10
2023-04-05T01:28:36.059Z,12.48
2023-04-05T01:31:13.513Z,12.27
2023-04-05T01:33:53.827Z,8.57
2023-04-05T01:36:28.032Z,8.18
2023-04-05T01:38:57.032Z,19.90
2023-04-05T01:41:24.766Z,7.50
2023-04-05T01:43:52.308Z,8.05
2023-04-05T01:46:19.878Z,7.93
2023-04-05T01:48:47.389Z,13.85
2023-04-05T01:51:14.975Z,9.90
2023-04-05T01:53:42.528Z,10.25
2023-04-05T01:56:09.987Z,8.27
2023-04-05T01:58:37.578Z,13.02
2023-04-05T02:01:05.337Z,11.63
2023-04-05T02:03:32.972Z,12.25
2023-04-05T02:06:00.754Z,11.50
2023-04-05T02:08:28.268Z,7.45
2023-04-05T02:10:55.834Z,9.82
2023-04-05T02:13:23.770Z,12.02
2023-04-05T02:15:51.690Z,12.80
2023-04-05T02:18:21.881Z,10.40
2023-04-05T02:20:53.011Z,10.40
2023-04-05T02:23:21.338Z,10.20
2023-04-05T02:25:48.865Z,10.68
2023-04-05T02:28:16.430Z,9.43
2023-04-05T02:30:44.104Z,7.85
2023-04-05T02:33:12.604Z,10.93
2023-04-05T02:35:40.191Z,9.52
2023-04-05T02:38:07.958Z,9.68
2023-04-05T02:40:35.636Z,9.68
2023-04-05T02:43:03.585Z,11.18
2023-04-05T02:45:31.572Z,16.65
2023-04-05T02:47:59.113Z,11.57
2023-04-05T02:50:26.687Z,9.20
2023-04-05T02:52:55.008Z,14.35
2023-04-05T02:55:22.546Z,7.18
2023-04-05T02:57:50.035Z,13.07
2023-04-05T03:00:18.842Z,9.90
2023-04-05T03:02:46.389Z,9.02
2023-04-05T03:05:14.056Z,8.73
2023-04-05T03:07:42.720Z,11.13
2023-04-05T03:10:10.538Z,13.70
2023-04-05T03:12:38.080Z,10.85
2023-04-05T03:15:06.825Z,9.18
2023-04-05T03:17:34.357Z,8.40
2023-04-05T03:20:08.865Z,11.07
2023-04-05T03:22:36.309Z,10.00
2023-04-05T03:25:04.073Z,8.38
2023-04-05T03:27:32.025Z,9.02
2023-04-05T03:29:59.551Z,8.00
2023-04-05T03:32:27.152Z,9.57
2023-04-05T03:34:54.748Z,15.27
2023-04-05T03:37:22.220Z,10.88
2023-04-05T03:39:49.733Z,9.75
2023-04-05T03:42:17.976Z,9.68
2023-04-05T03:44:45.575Z,10.77
2023-04-05T03:47:13.151Z,10.38
2023-04-05T03:49:41.107Z,7.68
2023-04-05T03:52:09.588Z,8.68
2023-04-05T03:54:37.141Z,11.65
2023-04-05T03:57:04.811Z,12.93
2023-04-05T03:59:32.453Z,13.15
2023-04-05T04:02:00.156Z,19.25
2023-04-05T04:04:28.130Z,9.65
2023-04-05T04:06:56.399Z,12.07
2023-04-05T04:09:24.065Z,11.05
2023-04-05T04:11:51.543Z,11.90
2023-04-05T04:14:19.142Z,11.23
2023-04-05T04:16:46.662Z,12.15
2023-04-05T04:19:14.360Z,12.45
2023-04-05T04:21:51.842Z,15.35
2023-04-05T04:24:20.353Z,9.45
2023-04-05T04:26:48.450Z,10.77
2023-04-05T04:29:17.247Z,12.00
2023-04-05T04:31:48.554Z,10.43
2023-04-05T04:34:18.737Z,8.25
2023-04-05T04:36:48.206Z,9.75
2023-04-05T04:39:15.990Z,13.23
2023-04-05T04:41:47.074Z,13.02
2023-04-05T04:44:15.184Z,10.00
2023-04-05T04:46:43.953Z,12.02
2023-04-05T04:49:13.405Z,11.30
2023-04-05T04:51:41.012Z,9.75
2023-04-05T04:54:08.592Z,11.65
2023-04-05T04:56:36.309Z,9.45
2023-04-05T04:59:03.870Z,13.80
2023-04-05T05:01:31.811Z,16.52
2023-04-05T05:03:59.530Z,11.57
2023-04-05T05:06:27.277Z,11.02
2023-04-05T05:08:56.375Z,12.40
2023-04-05T05:11:23.902Z,16.30
2023-04-05T05:13:53.316Z,16.02
2023-04-05T05:16:21.753Z,13.38
2023-04-05T05:18:49.331Z,15.05
2023-04-05T05:21:16.825Z,17.17
2023-04-05T05:23:44.404Z,16.38
2023-04-05T05:26:13.002Z,11.00
2023-04-05T05:28:40.572Z,9.63
2023-04-05T05:31:08.215Z,13.63
2023-04-05T05:33:35.773Z,16.10
2023-04-05T05:36:04.035Z,12.27
2023-04-05T05:38:31.918Z,14.82
2023-04-05T05:40:59.614Z,16.85
2023-04-05T05:43:27.114Z,14.60
2023-04-05T05:45:54.685Z,13.63
2023-04-05T05:48:22.234Z,17.25
2023-04-05T05:50:50.506Z,10.95
2023-04-05T05:53:18.039Z,15.90
2023-04-05T05:55:45.699Z,11.63
2023-04-05T05:58:13.268Z,11.60
2023-04-05T06:00:41.029Z,12.25
2023-04-05T06:03:09.927Z,17.55
2023-04-05T06:05:37.782Z,23.88
2023-04-05T06:08:05.657Z,19.48
2023-04-05T06:10:33.279Z,15.38
2023-04-05T06:13:00.797Z,16.77
2023-04-05T06:15:28.408Z,14.57
2023-04-05T06:17:55.988Z,9.25
2023-04-05T06:20:23.557Z,16.95
2023-04-05T06:22:51.218Z,15.68
2023-04-05T06:25:18.965Z,13.45
2023-04-05T06:27:46.544Z,10.55
2023-04-05T06:30:14.665Z,13.35
2023-04-05T06:32:42.375Z,13.38
2023-04-05T06:35:10.344Z,10.10
2023-04-05T06:37:37.933Z,14.93
2023-04-05T06:40:06.010Z,15.23
2023-04-05T06:42:33.574Z,12.98
2023-04-05T06:45:01.218Z,13.48
2023-04-05T06:47:28.773Z,10.85
2023-04-05T06:49:56.446Z,12.88
2023-04-05T06:52:23.953Z,11.15
2023-04-05T06:54:51.508Z,13.88
2023-04-05T06:57:19.676Z,10.93
2023-04-05T06:59:47.189Z,9.35
2023-04-05T07:02:14.889Z,7.93
2023-04-05T07:04:42.428Z,10.82
2023-04-05T07:07:10.213Z,6.63
2023-04-05T07:09:39.601Z,7.93
2023-04-05T07:12:09.402Z,11.45
2023-04-05T07:14:38.596Z,7.68
2023-04-05T07:17:07.631Z,9.95
2023-04-05T07:19:35.575Z,10.32
2023-04-05T07:22:03.287Z,10.40
2023-04-05T07:24:30.972Z,14.45
2023-04-05T07:26:58.644Z,11.35
2023-04-05T07:29:26.507Z,11.80
2023-04-05T07:31:54.105Z,12.95
2023-04-05T07:34:21.798Z,10.70
2023-04-05T07:36:50.281Z,11.85
2023-04-05T07:39:18.283Z,8.77
2023-04-05T07:41:45.797Z,10.02
2023-04-05T07:44:13.365Z,8.40
2023-04-05T07:46:46.860Z,10.10
2023-04-05T07:49:16.112Z,9.07
2023-04-05T07:51:43.774Z,8.05
2023-04-05T07:54:11.552Z,11.82
2023-04-05T07:56:39.066Z,6.35
2023-04-05T07:59:06.686Z,9.85
2023-04-05T08:01:34.199Z,9.30
2023-04-05T08:04:01.724Z,9.02
2023-04-05T08:06:29.234Z,6.60
2023-04-05T08:08:56.762Z,8.45
2023-04-05T08:11:24.344Z,9.73
2023-04-05T08:13:53.491Z,8.85
2023-04-05T08:16:21.238Z,10.18
2023-04-05T08:18:48.947Z,7.97
2023-04-05T08:21:16.646Z,6.70
2023-04-05T08:23:44.270Z,9.93
2023-04-05T08:26:11.756Z,7.80
2023-04-05T08:28:39.291Z,7.10
2023-04-05T08:31:06.875Z,9.75
2023-04-05T08:33:34.604Z,6.50
2023-04-05T08:36:10.162Z,4.82
2023-04-05T08:38:38.030Z,7.60
2023-04-05T08:41:15.420Z,7.90
2023-04-05T08:43:48.668Z,5.70
2023-04-05T08:46:17.488Z,10.35
2023-04-05T08:48:45.322Z,8.38
2023-04-05T08:51:13.099Z,3.63
2023-04-05T08:53:40.785Z,9.50
2023-04-05T08:56:10.396Z,4.07
2023-04-05T08:58:38.890Z,4.88
2023-04-05T09:01:07.799Z,8.18
2023-04-05T09:03:41.884Z,7.45
2023-04-05T09:06:12.022Z,5.93
2023-04-05T09:08:40.025Z,7.70
2023-04-05T09:11:07.661Z,9.15
2023-04-05T09:13:35.459Z,10.52
2023-04-05T09:16:03.145Z,7.28
2023-04-05T09:18:31.986Z,5.53
2023-04-05T09:21:06.672Z,5.90
2023-04-05T09:23:38.720Z,5.63
2023-04-05T09:26:24.215Z,6.05
2023-04-05T09:28:52.124Z,4.00
2023-04-05T09:31:36.206Z,11.25
2023-04-05T09:34:05.818Z,4.75
2023-04-05T09:36:36.656Z,7.97
2023-04-05T09:39:11.109Z,4.38
2023-04-05T09:41:39.442Z,5.82
2023-04-05T09:44:07.123Z,6.82
2023-04-05T09:46:38.204Z,7.45
2023-04-05T09:49:07.804Z,8.95
2023-04-05T09:51:37.796Z,6.47
2023-04-05T09:54:10.687Z,8.38
2023-04-05T09:56:42.782Z,5.05
2023-04-05T09:59:12.867Z,4.93
2023-04-05T10:01:45.399Z,6.43
2023-04-05T10:04:13.062Z,7.25
2023-04-05T10:06:42.524Z,6.63
2023-04-05T10:09:12.224Z,8.43
2023-04-05T10:11:40.144Z,4.70
2023-04-05T10:14:09.930Z,6.18
2023-04-05T10:17:13.549Z,6.50
2023-04-05T10:19:50.276Z,9.70
2023-04-05T10:22:34.326Z,7.28
2023-04-05T10:25:16.340Z,7.68
2023-04-05T10:27:51.002Z,7.28
2023-04-05T10:30:19.394Z,9.05
2023-04-05T10:33:14.709Z,8.57
2023-04-05T10:35:53.605Z,7.60
2023-04-05T10:38:31.204Z,6.65
2023-04-05T10:41:09.937Z,7.70
2023-04-05T10:43:40.289Z,6.40
2023-04-05T10:46:09.222Z,7.88
2023-04-05T10:48:58.701Z,5.88
2023-04-05T10:51:27.656Z,5.78
2023-04-05T10:53:57.297Z,9.75
2023-04-05T10:56:27.182Z,8.23
2023-04-05T10:58:56.681Z,9.50
2023-04-05T11:01:24.561Z,6.57
2023-04-05T11:03:54.901Z,6.53
2023-04-05T11:06:31.571Z,9.50
2023-04-05T11:09:12.186Z,10.43
2023-04-05T11:11:41.895Z,5.53
2023-04-05T11:14:37.381Z,5.80
2023-04-05T11:17:05.654Z,8.40
2023-04-05T11:19:48.089Z,9.65
2023-04-05T11:25:02.860Z,8.80
2023-04-05T11:27:37.296Z,5.85
2023-04-05T11:30:06.670Z,6.03
2023-04-05T11:32:44.650Z,7.63
2023-04-05T11:35:17.860Z,5.72
2023-04-05T11:37:56.124Z,6.28
2023-04-05T11:40:29.854Z,8.63
2023-04-05T11:43:05.928Z,6.57
2023-04-05T11:45:34.461Z,11.45
2023-04-05T11:48:07.002Z,6.60
2023-04-05T11:50:35.356Z,5.70
2023-04-05T11:53:17.043Z,6.07
2023-04-05T11:55:46.920Z,7.35
2023-04-05T11:58:21.385Z,7.75
2023-04-05T12:00:59.753Z,5.88
2023-04-05T12:03:28.944Z,8.48
2023-04-05T12:06:01.659Z,4.82
2023-04-05T12:08:43.484Z,7.07
2023-04-05T12:11:13.371Z,6.47
2023-04-05T12:13:41.122Z,6.32
2023-04-05T12:16:10.556Z,7.35
2023-04-05T12:18:38.745Z,6.82
2023-04-05T12:21:08.947Z,8.25
2023-04-05T12:23:38.215Z,6.03
2023-04-05T12:26:08.093Z,8.45
2023-04-05T12:28:56.203Z,8.63
2023-04-05T12:31:40.141Z,5.55
2023-04-05T12:34:08.301Z,5.65
2023-04-05T12:36:36.083Z,5.45
2023-04-05T12:39:09.171Z,11.25
2023-04-05T12:41:37.994Z,8.88
2023-04-05T12:44:28.894Z,6.13
2023-04-05T12:47:07.549Z,9.68
2023-04-05T12:49:41.046Z,6.28
2023-04-05T12:52:08.859Z,9.73
2023-04-05T12:54:36.394Z,11.82
2023-04-05T12:57:08.822Z,7.75
2023-04-05T12:59:36.632Z,6.88
2023-04-05T13:02:04.270Z,4.75
2023-04-05T13:04:31.816Z,4.97
2023-04-05T13:06:59.336Z,6.65
2023-04-05T13:09:26.942Z,6.07
2023-04-05T13:11:54.531Z,7.82
2023-04-05T13:14:22.011Z,6.63
2023-04-05T13:16:49.706Z,6.65
2023-04-05T13:19:17.184Z,5.65
2023-04-05T13:21:44.684Z,8.00
2023-04-05T13:24:12.979Z,6.03
2023-04-05T13:26:40.746Z,6.38
2023-04-05T13:29:08.512Z,8.90
2023-04-05T13:31:36.054Z,6.38
2023-04-05T13:34:03.613Z,7.15
2023-04-05T13:36:31.376Z,9.52
2023-04-05T13:38:58.970Z,6.03
2023-04-05T13:41:26.987Z,8.18
2023-04-05T13:43:54.517Z,8.43
2023-04-05T13:46:22.051Z,6.45
2023-04-05T13:48:49.601Z,6.00
2023-04-05T13:51:17.114Z,8.45
2023-04-05T13:53:44.738Z,10.05
2023-04-05T13:56:12.272Z,9.30
2023-04-05T13:58:39.945Z,6.88
2023-04-05T14:01:07.502Z,7.45
2023-04-05T14:03:35.187Z,13.52
2023-04-05T14:06:02.813Z,10.13
2023-04-05T14:08:30.405Z,8.23
2023-04-05T14:10:58.058Z,7.95
2023-04-05T14:13:25.733Z,10.70
2023-04-05T14:15:53.656Z,9.40
2023-04-05T14:18:21.241Z,10.45
2023-04-05T14:20:48.806Z,8.85
2023-04-05T14:23:16.377Z,7.35
2023-04-05T14:25:43.911Z,8.52
2023-04-05T14:28:11.646Z,8.88
2023-04-05T14:30:39.643Z,10.02
2023-04-05T14:33:07.372Z,5.65
2023-04-05T14:35:34.938Z,9.45
2023-04-05T14:38:02.466Z,9.38
2023-04-05T14:40:30.045Z,12.55
2023-04-05T14:42:57.641Z,9.00
2023-04-05T14:45:27.203Z,8.70
2023-04-05T14:47:55.447Z,12.75
2023-04-05T14:50:23.250Z,10.00
2023-04-05T14:52:51.067Z,10.02
2023-04-05T14:55:18.735Z,7.80
2023-04-05T14:57:46.333Z,9.07
2023-04-05T15:00:14.387Z,10.27
2023-04-05T15:02:42.246Z,11.52
2023-04-05T15:05:10.295Z,8.82
2023-04-05T15:07:37.850Z,9.50
2023-04-05T15:10:06.503Z,10.55
2023-04-05T15:12:34.147Z,8.00
2023-04-05T15:15:02.250Z,7.07
2023-04-05T15:17:30.183Z,10.23
2023-04-05T15:19:57.762Z,9.18
2023-04-05T15:22:25.470Z,7.43
2023-04-05T15:24:53.063Z,8.20
2023-04-05T15:27:21.005Z,8.27
2023-04-05T15:29:48.546Z,8.52
2023-04-05T15:32:17.065Z,10.80
2023-04-05T15:34:44.572Z,9.57
2023-04-05T15:37:12.125Z,8.25
2023-04-05T15:39:39.593Z,11.00
2023-04-05T15:42:07.180Z,13.02
2023-04-05T15:44:34.749Z,13.13
2023-04-05T15:47:03.650Z,12.60
2023-04-05T15:49:31.188Z,9.10
2023-04-05T15:52:00.437Z,10.07
2023-04-05T15:54:28.083Z,9.15
2023-04-05T15:56:56.693Z,7.05
2023-04-05T15:59:24.267Z,8.57
2023-04-05T16:01:51.879Z,7.43
2023-04-05T16:04:19.630Z,10.32
2023-04-05T16:06:47.571Z,11.13
2023-04-05T16:09:15.058Z,7.93
2023-04-05T16:11:42.634Z,8.70
2023-04-05T16:14:11.540Z,8.18
2023-04-05T16:16:52.465Z,6.63
2023-04-05T16:19:23.318Z,9.10
2023-04-05T16:21:52.618Z,9.25
2023-04-05T16:24:21.170Z,7.65
2023-04-05T16:26:48.761Z,7.93
2023-04-05T16:29:16.396Z,7.07
2023-04-05T16:31:47.293Z,10.18
2023-04-05T16:34:15.525Z,9.05
2023-04-05T16:36:43.135Z,10.07
2023-04-05T16:39:10.676Z,9.23
2023-04-05T16:41:38.203Z,8.10
2023-04-05T16:44:05.771Z,8.35
2023-04-05T16:46:33.588Z,8.00
2023-04-05T16:49:01.340Z,8.70
2023-04-05T16:51:29.707Z,11.60
2023-04-05T16:53:57.239Z,11.48
2023-04-05T16:56:24.688Z,9.02
2023-04-05T16:58:52.517Z,8.77
2023-04-05T17:01:20.408Z,14.32
2023-04-05T17:03:47.987Z,9.25
2023-04-05T17:06:16.209Z,9.85
2023-04-05T17:08:43.678Z,10.65
2023-04-05T17:11:11.591Z,9.40
2023-04-05T17:13:39.175Z,8.32
2023-04-05T17:16:07.589Z,9.07
2023-04-05T17:18:35.118Z,13.48
2023-04-05T17:21:02.634Z,9.00
2023-04-05T17:23:30.473Z,8.85
2023-04-05T17:25:58.100Z,10.80
2023-04-05T17:28:26.666Z,10.07
2023-04-05T17:30:54.248Z,9.48
2023-04-05T17:33:21.737Z,6.72
2023-04-05T17:35:49.292Z,10.13
2023-04-05T17:38:16.772Z,13.68
2023-04-05T17:40:44.321Z,11.40
2023-04-05T17:43:12.764Z,9.55
2023-04-05T17:45:40.568Z,7.63
2023-04-05T17:48:08.511Z,8.93
2023-04-05T17:50:38.095Z,9.85
2023-04-05T17:53:05.572Z,9.27
2023-04-05T17:55:34.400Z,9.20
2023-04-05T17:58:01.964Z,10.30
2023-04-05T18:00:29.664Z,13.32
2023-04-05T18:02:57.342Z,13.57
2023-04-05T18:05:25.973Z,7.63
2023-04-05T18:07:53.756Z,9.48
2023-04-05T18:10:23.405Z,8.40
2023-04-05T18:12:51.633Z,16.67
2023-04-05T18:15:19.369Z,11.80
2023-04-05T18:17:46.962Z,9.20
2023-04-05T18:20:14.522Z,10.77
2023-04-05T18:22:42.243Z,9.23
2023-04-05T18:25:11.825Z,11.70
2023-04-05T18:27:42.420Z,11.88
2023-04-05T18:30:11.747Z,12.02
2023-04-05T18:32:41.004Z,11.75
2023-04-05T18:35:10.188Z,11.07
2023-04-05T18:37:37.689Z,13.70
2023-04-05T18:40:05.932Z,9.43
2023-04-05T18:42:33.685Z,9.75
2023-04-05T18:45:01.506Z,10.40
2023-04-05T18:47:29.349Z,13.77
2023-04-05T18:49:56.887Z,10.02
2023-04-05T18:52:26.029Z,7.95
2023-04-05T18:54:58.263Z,12.18
2023-04-05T18:57:26.524Z,13.00
2023-04-05T18:59:54.047Z,11.60
2023-04-05T19:02:21.590Z,9.57
2023-04-05T19:04:49.160Z,15.57
2023-04-05T19:07:16.701Z,13.40
2023-04-05T19:09:44.228Z,14.02
2023-04-05T19:12:11.890Z,15.45
2023-04-05T19:14:39.381Z,13.43
2023-04-05T19:17:09.060Z,13.80
2023-04-05T19:19:37.033Z,12.48
2023-04-05T19:22:04.755Z,11.95
2023-04-05T19:24:32.405Z,12.80
2023-04-05T19:26:59.893Z,10.75
2023-04-05T19:29:27.429Z,10.27
2023-04-05T19:31:55.914Z,12.60
2023-04-05T19:34:23.490Z,11.95
2023-04-05T19:36:51.277Z,14.88
2023-04-05T19:39:18.875Z,11.10
2023-04-05T19:41:46.428Z,16.27
2023-04-05T19:44:14.207Z,17.52
2023-04-05T19:46:42.095Z,12.77
2023-04-05T19:49:12.229Z,17.65
2023-04-05T19:51:39.810Z,21.10
2023-04-05T19:54:14.627Z,14.38
2023-04-05T19:56:42.551Z,13.65
2023-04-05T19:59:22.074Z,15.35
2023-04-05T20:01:49.748Z,18.02
2023-04-05T20:04:19.660Z,17.77
2023-04-05T20:06:53.038Z,13.70
2023-04-05T20:09:26.157Z,13.55
2023-04-05T20:12:01.412Z,16.92
2023-04-05T20:14:37.028Z,16.42
2023-04-05T20:17:06.386Z,19.77
2023-04-05T20:19:33.971Z,15.43
2023-04-05T20:22:03.064Z,13.23
2023-04-05T20:24:30.677Z,18.17
2023-04-05T20:26:58.209Z,10.75
2023-04-05T20:29:27.587Z,15.90
2023-04-05T20:31:55.613Z,15.70
2023-04-05T20:34:31.870Z,15.65
2023-04-05T20:37:04.274Z,20.17
2023-04-05T20:42:00.226Z,16.77
2023-04-05T20:44:28.067Z,13.90
2023-04-05T20:46:57.655Z,17.67
2023-04-05T20:49:25.700Z,13.73
2023-04-05T20:51:54.802Z,19.25
2023-04-05T20:54:22.583Z,18.42
2023-04-05T20:56:50.176Z,16.80
2023-04-05T20:59:17.970Z,17.63
2023-04-05T21:01:47.397Z,16.92
2023-04-05T21:04:15.725Z,17.35
2023-04-05T21:06:43.218Z,17.13
2023-04-05T21:09:10.890Z,13.68
2023-04-05T21:11:38.562Z,15.30
2023-04-05T21:14:06.112Z,16.02
2023-04-05T21:16:33.667Z,19.15
2023-04-05T21:19:01.142Z,15.77
2023-04-05T21:21:28.619Z,20.95
2023-04-05T21:23:56.147Z,20.05
2023-04-05T21:26:23.594Z,18.60
2023-04-05T21:28:51.099Z,24.27
2023-04-05T21:31:18.588Z,14.30
2023-04-05T21:33:46.131Z,15.90
2023-04-05T21:36:14.183Z,20.80
2023-04-05T21:38:41.658Z,19.05
2023-04-05T21:41:09.152Z,20.60
2023-04-05T21:43:36.648Z,16.30
2023-04-05T21:46:04.141Z,15.15
2023-04-05T21:48:31.691Z,20.52
2023-04-05T21:50:59.131Z,20.48
2023-04-05T21:53:26.648Z,16.80
2023-04-05T21:55:54.368Z,16.85
2023-04-05T21:58:21.863Z,19.05
2023-04-05T22:00:49.456Z,18.13
2023-04-05T22:03:16.958Z,18.65
2023-04-05T22:05:44.484Z,15.73
2023-04-05T22:08:11.951Z,16.23
2023-04-05T22:10:39.769Z,19.33
2023-04-05T22:13:07.302Z,14.70
2023-04-05T22:15:34.778Z,21.65
2023-04-05T22:18:03.831Z,17.20
2023-04-05T22:20:31.464Z,17.48
2023-04-05T22:22:59.015Z,19.20
2023-04-05T22:25:26.903Z,18.35
2023-04-05T22:27:59.571Z,19.85
2023-04-05T22:30:28.967Z,25.15
2023-04-05T22:32:58.244Z,20.45
2023-04-05T22:35:25.950Z,22.58
2023-04-05T22:37:53.479Z,21.35
2023-04-05T22:40:26.249Z,18.40
2023-04-05T22:42:54.657Z,19.20
2023-04-05T22:45:22.146Z,21.70
2023-04-05T22:47:49.674Z,19.75
2023-04-05T22:50:17.496Z,20.85
2023-04-05T22:52:45.656Z,20.48
2023-04-05T22:55:13.722Z,19.83
2023-04-05T22:57:41.519Z,22.35
2023-04-05T23:00:09.829Z,20.63
2023-04-05T23:02:37.386Z,22.23
2023-04-05T23:05:05.222Z,23.23
2023-04-05T23:07:32.814Z,17.98
2023-04-05T23:10:00.504Z,19.88
2023-04-05T23:12:28.056Z,20.90
2023-04-05T23:14:56.418Z,20.63
2023-04-05T23:17:23.951Z,21.10
2023-04-05T23:19:51.507Z,26.10
2023-04-05T23:22:18.997Z,22.73
2023-04-05T23:24:46.640Z,17.30
2023-04-05T23:27:14.221Z,19.90
2023-04-05T23:29:41.697Z,15.85
2023-04-05T23:32:12.715Z,16.30
2023-04-05T23:34:40.660Z,21.67
2023-04-05T23:37:08.181Z,17.08
2023-04-05T23:39:35.682Z,18.20
2023-04-05T23:42:04.589Z,19.02
2023-04-05T23:44:32.134Z,16.80
2023-04-05T23:46:59.719Z,18.92
2023-04-05T23:49:28.089Z,16.20
2023-04-05T23:51:56.158Z,16.00
2023-04-05T23:54:23.776Z,16.90
2023-04-05T23:56:51.575Z,18.60
2023-04-05T23:59:19.128Z,26.48
